createdAt,value
2018-12-11T00:00:38.906Z,97135.81
2018-12-11T00:10:58.396Z,97149.77
2018-12-11T00:21:18.135Z,97150.83
2018-12-11T00:31:36.931Z,97156.72
2018-12-11T00:41:55.986Z,97158.58
2018-12-11T00:52:14.758Z,97157.44
2018-12-11T01:02:33.842Z,97143.34
2018-12-11T01:12:56.618Z,97145.58
2018-12-11T01:23:16.131Z,97149.23
2018-12-11T01:33:34.599Z,97144.09
2018-12-11T01:43:53.808Z,97142.58
2018-12-11T01:54:14.438Z,97136.50
2018-12-11T02:04:33.171Z,97134.44
2018-12-11T02:14:52.182Z,97118.41
2018-12-11T02:25:11.585Z,97121.14
2018-12-11T02:35:30.377Z,97112.81
2018-12-11T02:45:49.176Z,97088.98
2018-12-11T02:56:08.663Z,97083.97
2018-12-11T03:06:27.854Z,97079.55
2018-12-11T03:16:46.087Z,97086.91
2018-12-11T03:27:05.819Z,97088.20
2018-12-11T03:37:25.225Z,97103.63
2018-12-11T03:47:43.830Z,97094.77
2018-12-11T03:58:02.730Z,97077.20
2018-12-11T04:08:21.770Z,97073.94
2018-12-11T04:18:40.382Z,97051.67
2018-12-11T04:29:00.130Z,97060.91
2018-12-11T04:39:19.311Z,97055.56
2018-12-11T04:49:37.575Z,97041.91
2018-12-11T04:59:56.570Z,97049.63
2018-12-11T05:10:15.395Z,97039.03
2018-12-11T05:20:33.969Z,97045.44
2018-12-11T05:30:52.601Z,97054.83
2018-12-11T05:41:11.839Z,97053.80
2018-12-11T05:51:31.108Z,97058.27
2018-12-11T06:01:50.624Z,97039.38
2018-12-11T06:12:09.270Z,97054.88
2018-12-11T06:22:28.319Z,97044.08
2018-12-11T06:32:47.184Z,97042.64
2018-12-11T06:43:07.300Z,97062.44
2018-12-11T06:53:27.753Z,97059.02
2018-12-11T07:03:46.501Z,97075.03
2018-12-11T07:14:06.252Z,97082.19
2018-12-11T07:24:25.594Z,97098.68
2018-12-11T07:34:47.190Z,97088.34
2018-12-11T07:45:07.203Z,97091.42
2018-12-11T07:55:26.693Z,97104.73
2018-12-11T08:05:45.652Z,97091.84
2018-12-11T08:16:04.942Z,97115.95
2018-12-11T08:26:23.470Z,97120.48
2018-12-11T08:36:43.009Z,97125.92
2018-12-11T08:47:02.530Z,97134.13
2018-12-11T08:57:21.450Z,97145.13
2018-12-11T09:07:40.778Z,97154.66
2018-12-11T09:17:59.190Z,97153.87
2018-12-11T09:28:18.130Z,97149.58
2018-12-11T09:38:37.583Z,97159.30
2018-12-11T09:48:56.850Z,97158.00
2018-12-11T09:59:16.229Z,97158.97
2018-12-11T10:09:35.402Z,97163.59
2018-12-11T10:19:53.920Z,97154.78
2018-12-11T10:30:14.839Z,97152.46
2018-12-11T10:40:33.699Z,97159.38
2018-12-11T10:50:52.291Z,97159.41
2018-12-11T11:01:21.855Z,97154.29
2018-12-11T11:11:39.792Z,97163.72
2018-12-11T11:21:58.420Z,97170.14
2018-12-11T11:32:17.350Z,97154.19
2018-12-11T11:42:36.520Z,97170.58
2018-12-11T11:52:56.159Z,97183.19
2018-12-11T12:03:15.973Z,97188.64
2018-12-11T12:13:35.550Z,97179.33
2018-12-11T12:23:54.531Z,97176.88
2018-12-11T12:34:14.549Z,97176.53
2018-12-11T12:44:34.381Z,97176.47
2018-12-11T12:54:53.583Z,97178.33
2018-12-11T13:05:12.612Z,97185.55
2018-12-11T13:15:31.392Z,97170.55
2018-12-11T13:25:50.572Z,97181.73
2018-12-11T13:36:10.859Z,97180.37
2018-12-11T13:46:30.279Z,97184.73
2018-12-11T13:56:49.431Z,97191.27
2018-12-11T14:07:10.784Z,97191.81
2018-12-11T14:17:31.490Z,97201.88
2018-12-11T14:27:59.781Z,97199.80
2018-12-11T14:38:18.819Z,97212.16
2018-12-11T14:48:38.980Z,97216.65
2018-12-11T14:58:57.491Z,97187.75
2018-12-11T15:09:34.710Z,97201.42
2018-12-11T15:19:53.659Z,97212.18
2018-12-11T15:30:12.919Z,97211.46
2018-12-11T15:40:35.550Z,97213.64
2018-12-11T15:50:54.319Z,97210.55
2018-12-11T16:01:14.186Z,97218.58
2018-12-11T16:11:33.803Z,97215.80
2018-12-11T16:21:54.290Z,97223.38
2018-12-11T16:32:14.861Z,97227.72
2018-12-11T16:42:37.325Z,97225.36
2018-12-11T16:52:56.770Z,97211.86
2018-12-11T17:03:17.032Z,97229.39
2018-12-11T17:13:37.400Z,97240.53
2018-12-11T17:23:57.871Z,97225.81
2018-12-11T17:34:17.992Z,97240.05
2018-12-11T17:44:38.517Z,97221.22
2018-12-11T17:54:59.033Z,97246.77
2018-12-11T18:05:20.216Z,97247.04
2018-12-11T18:15:41.014Z,97242.05
2018-12-11T18:26:02.982Z,97260.38
2018-12-11T18:36:23.743Z,97242.73
2018-12-11T18:46:44.996Z,97260.38
2018-12-11T18:57:08.683Z,97263.35
2018-12-11T19:07:32.634Z,97260.78
2018-12-11T19:17:58.598Z,97265.83
2018-12-11T19:28:24.421Z,97269.83
2018-12-11T19:38:46.208Z,97271.63
2018-12-11T19:49:07.345Z,97263.81
2018-12-11T19:59:32.072Z,97259.94
2018-12-11T20:10:11.868Z,97248.24
2018-12-11T20:20:36.635Z,97244.48
2018-12-11T20:30:59.193Z,97249.09
2018-12-11T20:41:44.881Z,97240.70
2018-12-11T20:52:13.472Z,97251.84
2018-12-11T21:02:40.882Z,97254.08
2018-12-11T21:13:03.977Z,97240.33
2018-12-11T21:23:25.245Z,97260.05
2018-12-11T21:33:50.185Z,97270.12
2018-12-11T21:44:10.186Z,97259.37
2018-12-11T21:54:29.988Z,97269.61
2018-12-11T22:04:50.780Z,97268.82
2018-12-11T22:15:11.530Z,97258.47
2018-12-11T22:25:31.072Z,97260.94
2018-12-11T22:35:52.428Z,97262.08
2018-12-11T22:46:12.659Z,97257.80
2018-12-11T22:56:30.852Z,97253.36
2018-12-11T23:06:50.659Z,97254.20
2018-12-11T23:17:10.724Z,97265.67
2018-12-11T23:27:29.368Z,97270.27
2018-12-11T23:37:49.799Z,97269.09
2018-12-11T23:48:08.543Z,97262.58
2018-12-11T23:58:27.126Z,97263.02
